createdAt,value
2022-12-27T00:02:18.356Z,2.08
2022-12-27T00:04:44.775Z,1.35
2022-12-27T00:07:11.165Z,1.17
2022-12-27T00:09:37.580Z,1.38
2022-12-27T00:12:04.332Z,1.67
2022-12-27T00:14:44.038Z,0.90
2022-12-27T00:17:10.419Z,1.17
2022-12-27T00:19:36.815Z,1.45
2022-12-27T00:22:05.252Z,1.30
2022-12-27T00:24:31.647Z,1.02
2022-12-27T00:26:58.015Z,0.50
2022-12-27T00:29:24.429Z,0.45
2022-12-27T00:31:50.982Z,0.60
2022-12-27T00:34:17.433Z,0.98
2022-12-27T00:36:44.982Z,0.43
2022-12-27T00:39:11.681Z,0.40
2022-12-27T00:41:38.937Z,0.47
2022-12-27T00:44:05.467Z,0.60
2022-12-27T00:46:31.868Z,0.95
2022-12-27T00:48:58.665Z,0.73
2022-12-27T00:51:25.506Z,1.20
2022-12-27T00:53:52.961Z,1.00
2022-12-27T00:56:22.401Z,3.45
2022-12-27T00:58:53.388Z,0.68
2022-12-27T01:01:21.689Z,0.90
2022-12-27T01:03:48.182Z,1.17
2022-12-27T01:06:19.505Z,1.08
2022-12-27T01:08:47.097Z,1.10
2022-12-27T01:11:19.536Z,3.15
2022-12-27T01:13:46.100Z,1.88
2022-12-27T01:16:23.491Z,3.05
2022-12-27T01:18:50.459Z,3.80
2022-12-27T01:21:20.624Z,1.42
2022-12-27T01:23:48.101Z,1.50
2022-12-27T01:26:18.246Z,1.55
2022-12-27T01:28:45.212Z,1.65
2022-12-27T01:31:15.075Z,1.27
2022-12-27T01:33:42.469Z,1.75
2022-12-27T01:36:08.793Z,1.70
2022-12-27T01:38:35.229Z,1.60
2022-12-27T01:41:21.631Z,1.15
2022-12-27T01:43:48.090Z,1.58
2022-12-27T01:46:14.657Z,0.60
2022-12-27T01:48:41.389Z,0.80
2022-12-27T01:51:09.192Z,1.05
2022-12-27T01:53:43.580Z,2.15
2022-12-27T01:56:39.937Z,1.10
2022-12-27T01:59:09.443Z,0.77
2022-12-27T02:01:42.777Z,0.88
2022-12-27T02:04:14.649Z,0.55
2022-12-27T02:06:41.929Z,2.05
2022-12-27T02:09:34.526Z,1.45
2022-12-27T02:12:02.985Z,2.42
2022-12-27T02:14:33.150Z,2.28
2022-12-27T02:17:02.549Z,4.60
2022-12-27T02:19:34.863Z,2.30
2022-12-27T02:22:13.713Z,6.28
2022-12-27T02:24:58.332Z,4.00
2022-12-27T02:27:56.996Z,5.40
2022-12-27T02:30:24.021Z,5.00
2022-12-27T02:32:58.240Z,3.00
2022-12-27T02:35:36.664Z,7.00
2022-12-27T02:38:18.501Z,5.20
2022-12-27T02:41:05.147Z,3.75
2022-12-27T02:43:50.950Z,3.53
2022-12-27T02:46:48.885Z,5.67
2022-12-27T02:49:48.977Z,3.50
2022-12-27T02:52:49.176Z,4.68
2022-12-27T02:56:07.315Z,6.38
2022-12-27T02:59:14.449Z,4.22
2022-12-27T03:02:22.116Z,2.85
2022-12-27T03:07:51.292Z,3.15
2022-12-27T03:11:05.311Z,3.65
2022-12-27T03:14:05.441Z,3.00
2022-12-27T03:16:41.512Z,5.05
2022-12-27T03:19:40.660Z,5.43
2022-12-27T03:22:28.248Z,2.85
2022-12-27T03:25:15.605Z,2.33
2022-12-27T03:28:06.468Z,5.90
2022-12-27T03:31:12.335Z,4.38
2022-12-27T03:33:41.748Z,4.05
2022-12-27T03:36:34.553Z,3.33
2022-12-27T03:39:15.435Z,6.63
2022-12-27T03:42:12.264Z,3.72
2022-12-27T03:44:39.635Z,4.13
2022-12-27T03:47:23.044Z,2.97
2022-12-27T03:49:56.873Z,2.97
2022-12-27T03:52:42.218Z,3.30
2022-12-27T03:55:09.903Z,5.47
2022-12-27T03:57:37.370Z,2.10
2022-12-27T04:00:09.363Z,2.08
2022-12-27T04:02:35.976Z,4.07
2022-12-27T04:05:02.556Z,2.42
2022-12-27T04:07:28.982Z,3.83
2022-12-27T04:10:13.989Z,2.22
2022-12-27T04:12:58.859Z,6.40
2022-12-27T04:15:43.856Z,4.43
2022-12-27T04:18:28.686Z,2.65
2022-12-27T04:21:13.509Z,3.83
2022-12-27T04:23:58.431Z,6.03
2022-12-27T04:26:43.101Z,3.75
2022-12-27T04:29:27.808Z,4.85
2022-12-27T04:32:13.044Z,4.15
2022-12-27T04:34:45.063Z,3.08
2022-12-27T04:37:14.843Z,3.00
2022-12-27T04:39:42.385Z,3.35
2022-12-27T04:42:28.583Z,4.43
2022-12-27T04:45:15.521Z,3.90
2022-12-27T04:48:00.877Z,4.93
2022-12-27T04:50:50.604Z,3.60
2022-12-27T04:53:38.004Z,2.40
2022-12-27T04:56:05.469Z,5.75
2022-12-27T04:58:32.787Z,3.65
2022-12-27T05:01:37.212Z,2.15
2022-12-27T05:04:03.821Z,6.55
2022-12-27T05:06:40.761Z,3.47
2022-12-27T05:09:25.739Z,3.92
2022-12-27T05:12:20.793Z,4.28
2022-12-27T05:14:47.160Z,3.25
2022-12-27T05:17:13.722Z,4.32
2022-12-27T05:19:40.100Z,3.25
2022-12-27T05:22:25.128Z,3.35
2022-12-27T05:25:10.046Z,3.22
2022-12-27T05:27:36.422Z,3.47
2022-12-27T05:30:02.926Z,2.78
2022-12-27T05:32:29.343Z,2.65
2022-12-27T05:34:55.746Z,2.80
2022-12-27T05:37:22.143Z,4.72
2022-12-27T05:39:48.539Z,3.75
2022-12-27T05:42:14.973Z,2.47
2022-12-27T05:44:41.368Z,2.78
2022-12-27T05:47:07.748Z,2.58
2022-12-27T05:49:34.129Z,1.65
2022-12-27T05:52:00.512Z,4.75
2022-12-27T05:54:26.906Z,1.95
2022-12-27T05:56:53.288Z,2.95
2022-12-27T05:59:19.773Z,4.50
2022-12-27T06:01:46.340Z,2.60
2022-12-27T06:04:12.924Z,3.72
2022-12-27T06:06:39.351Z,5.20
2022-12-27T06:09:05.751Z,3.17
2022-12-27T06:11:32.237Z,2.85
2022-12-27T06:13:58.624Z,4.72
2022-12-27T06:16:25.075Z,2.65
2022-12-27T06:18:51.520Z,1.90
2022-12-27T06:21:20.528Z,3.10
2022-12-27T06:23:48.278Z,3.60
2022-12-27T06:26:20.371Z,2.75
2022-12-27T06:28:48.939Z,3.50
2022-12-27T06:31:19.362Z,3.40
2022-12-27T06:33:46.587Z,5.10
2022-12-27T06:36:15.299Z,3.25
2022-12-27T06:38:42.192Z,5.63
2022-12-27T06:41:10.938Z,6.40
2022-12-27T06:43:37.944Z,12.52
2022-12-27T06:46:07.130Z,8.85
2022-12-27T06:48:33.986Z,5.72
2022-12-27T06:51:04.186Z,9.13
2022-12-27T06:53:30.664Z,6.03
2022-12-27T06:56:06.876Z,7.07
2022-12-27T06:58:33.598Z,7.55
2022-12-27T07:01:11.147Z,8.25
2022-12-27T07:03:37.984Z,5.25
2022-12-27T07:06:06.053Z,5.38
2022-12-27T07:08:32.985Z,5.10
2022-12-27T07:11:02.175Z,7.47
2022-12-27T07:13:29.508Z,4.85
2022-12-27T07:15:55.928Z,4.57
2022-12-27T07:18:22.320Z,5.40
2022-12-27T07:20:48.714Z,6.13
2022-12-27T07:23:19.406Z,4.38
2022-12-27T07:25:46.023Z,4.55
2022-12-27T07:28:14.928Z,5.10
2022-12-27T07:30:42.330Z,6.68
2022-12-27T07:33:09.148Z,8.85
2022-12-27T07:35:38.505Z,9.32
2022-12-27T07:38:07.251Z,7.00
2022-12-27T07:40:36.807Z,9.75
2022-12-27T07:43:03.583Z,18.98
2022-12-27T07:45:30.216Z,23.02
2022-12-27T07:47:56.637Z,18.25
2022-12-27T07:50:23.088Z,12.85
2022-12-27T07:52:50.089Z,12.20
2022-12-27T07:55:16.509Z,11.80
2022-12-27T07:57:42.893Z,22.02
2022-12-27T08:00:09.990Z,33.15
2022-12-27T08:02:36.392Z,28.20
2022-12-27T08:05:02.848Z,21.85
2022-12-27T08:07:29.282Z,30.50
2022-12-27T08:09:55.669Z,25.25
2022-12-27T08:12:22.124Z,14.93
2022-12-27T08:14:49.635Z,7.53
2022-12-27T08:17:25.201Z,4.22
2022-12-27T08:19:52.272Z,9.18
2022-12-27T08:22:18.899Z,9.52
2022-12-27T08:24:45.416Z,37.00
2022-12-27T08:27:12.275Z,7.63
2022-12-27T08:29:38.670Z,7.70
2022-12-27T08:32:05.448Z,4.65
2022-12-27T08:34:31.854Z,3.53
2022-12-27T08:36:58.256Z,6.47
2022-12-27T08:39:24.721Z,9.00
2022-12-27T08:41:56.307Z,6.00
2022-12-27T08:44:24.788Z,3.33
2022-12-27T08:46:51.439Z,9.25
2022-12-27T08:49:17.891Z,4.85
2022-12-27T08:51:51.213Z,3.78
2022-12-27T08:54:17.602Z,3.33
2022-12-27T08:56:47.193Z,4.30
2022-12-27T08:59:14.603Z,3.90
2022-12-27T09:01:41.116Z,4.05
2022-12-27T09:04:08.682Z,2.80
2022-12-27T09:06:35.106Z,4.38
2022-12-27T09:09:01.613Z,3.25
2022-12-27T09:11:33.272Z,2.85
2022-12-27T09:14:06.847Z,2.50
2022-12-27T09:16:36.510Z,1.55
2022-12-27T09:19:04.504Z,7.00
2022-12-27T09:21:34.046Z,3.58
2022-12-27T09:24:00.484Z,5.22
2022-12-27T09:26:37.253Z,13.82
2022-12-27T09:29:04.791Z,3.00
2022-12-27T09:31:33.471Z,10.40
2022-12-27T09:33:59.954Z,4.82
2022-12-27T09:36:28.729Z,9.05
2022-12-27T09:38:56.726Z,5.20
2022-12-27T09:42:44.543Z,7.88
2022-12-27T09:45:12.533Z,10.52
2022-12-27T09:48:00.304Z,7.18
2022-12-27T09:50:47.131Z,3.47
